Airfield :
LOGIN :

Register | Disclaimer

   EN    FR    IT 

 










Legend :    VFR   Marginal VFR   IFR   Intensive IFR   Very Intensive IFR
Visi :
Ceiling :
>= 8 km
>= 3000ft
5 to 8 km
1000 to 3000 ft
1500m to 5 km
500 to 1000 ft
800 to 1500m
200 to 500 ft
< 800m
< 200 ft
Symbols :   Thunderstorms  Fog  Heavy snow  Heavy precipitations  Wind > 20 kt
SIGMETs :     Misc.  Thunderstorms  Icing  Turbulence  Mountain Waves  Volcanic Ashes







- Airport Elevation : 21 ft
- IATA code : VST


ESOW - Stockholm Västerås

CURRENT METAR :
  • 221620Z AUTO 00000KT 4400 -SN FEW007/// OVC042/// M02/M03 Q1009 RESHUP

EXPIRED METARs :
  • 221550Z AUTO VRB02KT 8000 FZUP SCT006/// OVC042/// M02/M03 Q1009 RESN
  • 221520Z AUTO VRB03KT 9999 BKN007/// OVC042/// M01/M03 Q1009
  • 221450Z AUTO 22003KT 9999 -SN OVC006/// M01/M03 Q1009 REFZUP RESHUP
  • 221420Z AUTO 23004KT 9000 FZUP BKN006/// BKN008/// OVC009/// M01/M02 Q1009
  • 221350Z AUTO 23004KT 9999 FZUP OVC007/// M01/M02 Q1009

Expired Forecast.
No reported NOTAMs for that airfield.



MET'MAP, your aeronautical weather chart ! - Copyright ORBIFLY December 2007 - Disclaimer

ORBIFLY MET'MAP TEAM :

Programming & Development : Alexandra Zaïnal
Concept & Development : Baudouin d'Aumeries
Co-Development & Prog : Marc-Olivier Méhu
Technical & hardware support : Manuel Goepfert

Contact : metmap@orbifly.com




SOURCES & CREDITS :

   NOAA